7/2 a 14/2: Cálido y más inestable, luego gran vaguada polar y entrada fría veraniega

Avatar de Usuario
Ezequiel95
Mensajes: 9049
Registrado: Jue Dic 10, 2015 12:33 pm
Ubicación: Merlo, Buenos Aires
Contactar:

Re: 7/2 a 14/2: Cálido y más inestable, luego gran vaguada polar y entrada fría veraniega

Mensaje por Ezequiel95 » Lun Feb 11, 2019 1:49 am

Se nublo por acá

Defu590
Mensajes: 122
Registrado: Sab Abr 11, 2015 11:34 pm
Ubicación: Zona Oeste - La Matanza

Re: 7/2 a 14/2: Cálido y más inestable, luego gran vaguada polar y entrada fría veraniega

Mensaje por Defu590 » Lun Feb 11, 2019 1:50 am

Terrible como exploto esa celda en las cercanías de zarate .
Diluvios imaginarios :roll:

Avatar de Usuario
esteban_m
Mensajes: 2085
Registrado: Sab Sep 26, 2009 3:22 pm
Ubicación: Tanti, valle de Punilla, Cordoba

Re: 7/2 a 14/2: Cálido y más inestable, luego gran vaguada polar y entrada fría veraniega

Mensaje por esteban_m » Lun Feb 11, 2019 1:55 am

Terrible cómo está pegando acá. Fuertísimo el viento y la lluvia.
Ya terminó el Cosquín Rock? Es muy fuerte cómo debe estar llegando.
Tanti, sierras de Córdoba

Avatar de Usuario
Fmartins0
Mensajes: 443
Registrado: Mié Ene 22, 2014 1:04 am
Ubicación: San Vicente, GBA sur

Re: 7/2 a 14/2: Cálido y más inestable, luego gran vaguada polar y entrada fría veraniega

Mensaje por Fmartins0 » Lun Feb 11, 2019 1:59 am

Relámpagos al Norte! Supongo que son de la celda que anda por Zárate

Sent from my Redmi Note 5 using Tapatalk

Avatar de Usuario
Diecha
Mensajes: 13689
Registrado: Jue Ago 25, 2011 9:31 pm
Ubicación: Lomas de Zamora

Re: 7/2 a 14/2: Cálido y más inestable, luego gran vaguada polar y entrada fría veraniega

Mensaje por Diecha » Lun Feb 11, 2019 2:08 am



Imagen
Imagen
Última edición por Diecha el Lun Feb 11, 2019 2:27 am, editado 1 vez en total.

Avatar de Usuario
Ezequiel95
Mensajes: 9049
Registrado: Jue Dic 10, 2015 12:33 pm
Ubicación: Merlo, Buenos Aires
Contactar:

Re: 7/2 a 14/2: Cálido y más inestable, luego gran vaguada polar y entrada fría veraniega

Mensaje por Ezequiel95 » Lun Feb 11, 2019 2:16 am

LLegó el frente por acá y activó el Rio de La plata :roll:

Avatar de Usuario
HernanCba
Mensajes: 3274
Registrado: Sab Mar 02, 2013 1:21 am
Ubicación: Cosquín, Valle de Punilla, Córdoba
Contactar:

Re: 7/2 a 14/2: Cálido y más inestable, luego gran vaguada polar y entrada fría veraniega

Mensaje por HernanCba » Lun Feb 11, 2019 2:17 am

esteban_m escribió:Terrible cómo está pegando acá. Fuertísimo el viento y la lluvia.
Ya terminó el Cosquín Rock? Es muy fuerte cómo debe estar llegando.
Termino justo el Cosquín Rock, les debe haber agarrado a los últimos que salían

Llueve con todo. Mucha actividad eléctrica!

Avatar de Usuario
Diecha
Mensajes: 13689
Registrado: Jue Ago 25, 2011 9:31 pm
Ubicación: Lomas de Zamora

Re: 7/2 a 14/2: Cálido y más inestable, luego gran vaguada polar y entrada fría veraniega

Mensaje por Diecha » Lun Feb 11, 2019 2:18 am

- Córdoba 02 hs: SACO 110500Z 18024KT 9000 TSRA BKN023 FEW040CB 19/17 Q1007

Imagen

-Aeroparque 02 hs: SABE 110500Z VRB02KT 9999 FEW060CB SCT085 BKN150 29/21 Q1001
- Ezeiza 02 hs: SAEZ 110500Z VRB03KT CAVOK 23/22 Q1001

Imagen
Última edición por Diecha el Lun Feb 11, 2019 2:21 am, editado 1 vez en total.

Defu590
Mensajes: 122
Registrado: Sab Abr 11, 2015 11:34 pm
Ubicación: Zona Oeste - La Matanza

Re: 7/2 a 14/2: Cálido y más inestable, luego gran vaguada polar y entrada fría veraniega

Mensaje por Defu590 » Lun Feb 11, 2019 2:19 am

HernanCba escribió:
esteban_m escribió:Terrible cómo está pegando acá. Fuertísimo el viento y la lluvia.
Ya terminó el Cosquín Rock? Es muy fuerte cómo debe estar llegando.
Termino justo el Cosquín Rock, les debe haber agarrado a los últimos que salían

Llueve con todo. Mucha actividad eléctrica!
Estaba chusmeando la grilla y estaba por comentar lo mismo, terrible garron los que están viajando en este momento!
Diluvios imaginarios :roll:

Avatar de Usuario
Diecha
Mensajes: 13689
Registrado: Jue Ago 25, 2011 9:31 pm
Ubicación: Lomas de Zamora

Re: 7/2 a 14/2: Cálido y más inestable, luego gran vaguada polar y entrada fría veraniega

Mensaje por Diecha » Lun Feb 11, 2019 2:22 am

- Córdoba 02:07 hs: SACO 110507Z 23028KT 5000 +TSRA SCT007 FEW031CB 18/17 Q1007

Imagen



Imagen

Responder